Meteo Giornale » Osservazioni meteo Italia » Bari-Palese Macchie

ore: 08:50 - Osservazioni Meteo Bari-Palese Macchie
Lat. 41° 8' N Lon. 16° 47' E Alt. 34 metri s.l.m.

sereno Europe/Rome

28 °C

Sereno

Temp. 24 Ore

18 °C

28 °C

Nord

3.7 Km/h

Dew point 12 °C

Umidità 37 %

Visibilità  10 Km

Il sole sorge alle ore 05:29

Il sole tramonta alle ore 20:27

Data e Ora Cielo e Fenomeni T °C DP °C Um. % Pres. hPa Vis. km Vento km/h
Oggi h: 08:50 sereno Sereno 28 12 37 1014 10 N 3.7
Oggi h: 08:20 sereno Sereno 27 12 39 1014 10 N 1.8
Oggi h: 07:50 sereno Sereno 26 13 44 1014 10 N 1.8
Oggi h: 07:20 sereno Sereno 23 12 49 1014 10 N 3.7
Oggi h: 06:50 sereno Sereno 20 11 56 1014 10 N 5.5
Oggi h: 06:20 sereno Sereno 19 11 59 1013 10 S/SO 7.4
Oggi h: 05:50 sereno Sereno 18 11 63 1013 10 SO 9.3
Oggi h: 05:20 sereno Sereno 18 12 67 1013 10 S/SO 9.3
Oggi h: 04:50 sereno Sereno 18 14 77 1013 10 S/SO 9.3
Oggi h: 02:50 sereno Sereno 18 11 63 1014 10 O/SO 9.3
Oggi h: 02:20 sereno Sereno 20 11 56 1014 10 S/SO 7.4
Oggi h: 01:50 sereno Sereno 22 12 53 1014 10 N 5.5
Oggi h: 01:20 sereno Sereno 20 12 59 1014 10 N 5.5
Oggi h: 00:50 sereno Sereno 21 12 56 1014 10 N 5.5
Oggi h: 00:20 sereno Sereno 21 12 56 1014 10 N 1.8
Ieri h: 23:50 sereno Sereno 21 13 60 1014 10 S/SO 9.3
Ieri h: 23:20 sereno Sereno 21 13 60 1014 10 S/SO 9.3
Ieri h: 22:50 sereno Sereno 22 13 56 1014 10 S/SO 7.4
Ieri h: 22:20 sereno Sereno 21 15 68 1014 10 N 5.5
Ieri h: 21:50 sereno Sereno 23 16 64 1014 10 N 1.8
Ieri h: 21:20 sereno Sereno 24 17 64 1014 10 N 3.7
Ieri h: 20:50 sereno Sereno 24 17 64 1014 10 N 3.7
Ieri h: 20:20 sereno Sereno 25 16 57 1014 10 N 3.7
Ieri h: 19:50 sereno Sereno 26 16 54 1014 10 N 3.7
Ieri h: 19:20 sereno Sereno 27 14 44 1014 10 N 5.5
Ieri h: 18:50 sereno Sereno 26 15 50 1014 10 N 5.5
Ieri h: 18:20 sereno Sereno 27 14 44 1014 10 NE 7.4
Ieri h: 17:50 sereno Sereno 27 15 47 1014 10 N/NE 7.4
Ieri h: 17:20 sereno Sereno 27 16 50 1014 10 E/NE 9.3
Ieri h: 16:50 sereno Sereno 27 15 47 1014 10 NE 9.3
Ieri h: 16:20 sereno Sereno 27 17 54 1014 10 N/NE 9.3
Ieri h: 15:50 sereno Sereno 25 19 69 1014 10 N/NE 9.3
Ieri h: 15:20 sereno Sereno 27 18 57 1014 10 N/NE 11.1
Ieri h: 13:50 sereno Sereno 28 15 45 1015 10 N/NE 13
Ieri h: 13:20 sereno Sereno 27 16 50 1015 10 N/NE 13
Ieri h: 12:50 sereno Sereno 28 14 42 1015 10 N 11.1
Ieri h: 12:20 sereno Sereno 27 12 39 1015 10 N 11.1
Ieri h: 11:50 sereno Sereno 28 11 34 1015 10 N/NE 11.1
Ieri h: 11:20 sereno Sereno 28 12 37 1015 10 N/NE 9.3
Ieri h: 10:50 sereno Sereno 27 11 36 1015 10 N 7.4
Ieri h: 10:20 sereno Sereno 27 13 42 1015 10 N 5.5
Ieri h: 09:50 sereno Sereno 27 15 47 1015 10 N 5.5